Time;durP1;ratioP1;P1;durP2;ratioP2;P2;SDS_P1;SDS_P2;PMS_P1;PMS_P2;Temp;Humidity;BMP_temperature;BMP_pressure;BME280_temperature;BME280_humidity;BME280_pressure;Samples;Min_cycle;Max_cycle;Signal;HPM_P1;HPM_P2
2022/07/12 00:01:28;;;;;;;1.10;0.60;;;13.10;99.90;;;;;;4998211;28;20076;-79
2022/07/12 00:03:54;;;;;;;0.95;0.52;;;13.10;99.90;;;;;;4998112;28;20489;-80
2022/07/12 00:06:20;;;;;;;4.85;0.45;;;13.10;99.90;;;;;;5021455;28;20038;-79
2022/07/12 00:08:45;;;;;;;0.95;0.55;;;13.00;99.90;;;;;;5000367;28;20044;-79
2022/07/12 00:11:11;;;;;;;9.55;0.70;;;13.00;99.90;;;;;;4984716;28;20124;-79
2022/07/12 00:13:36;;;;;;;0.52;0.50;;;13.00;99.90;;;;;;5021816;28;20578;-82
2022/07/12 00:16:02;;;;;;;0.45;0.35;;;13.00;99.90;;;;;;5017091;28;20044;-79
2022/07/12 00:18:28;;;;;;;0.40;0.30;;;13.00;99.90;;;;;;5003641;28;20073;-79
2022/07/12 00:20:53;;;;;;;2.65;0.43;;;12.90;99.90;;;;;;5003086;28;20041;-81
2022/07/12 00:23:19;;;;;;;8.20;0.45;;;12.90;99.90;;;;;;5014758;28;20061;-80
2022/07/12 00:25:44;;;;;;;15.93;0.50;;;12.90;99.90;;;;;;4998090;28;20131;-79
2022/07/12 00:28:10;;;;;;;1.73;0.20;;;12.80;99.90;;;;;;4987412;28;20046;-79
2022/07/12 00:30:35;;;;;;;0.30;0.20;;;12.80;99.90;;;;;;4997870;28;20078;-78
2022/07/12 00:33:01;;;;;;;1.10;0.20;;;12.70;99.90;;;;;;5000433;28;20040;-80
2022/07/12 00:35:27;;;;;;;4.32;0.22;;;12.70;99.90;;;;;;5012378;28;20042;-79
2022/07/12 00:37:52;;;;;;;3.80;0.30;;;12.80;99.90;;;;;;4985168;28;20180;-79
2022/07/12 00:40:18;;;;;;;1.23;0.30;;;12.70;99.90;;;;;;5001802;28;20041;-79
2022/07/12 00:42:43;;;;;;;0.73;0.40;;;12.70;99.90;;;;;;5001685;28;20056;-79
2022/07/12 00:45:09;;;;;;;0.50;0.40;;;12.80;99.90;;;;;;5003103;28;20091;-79
2022/07/12 00:47:45;;;;;;;0.80;0.50;;;12.70;99.90;;;;;;5016930;28;20400;-79
2022/07/12 00:50:14;;;;;;;0.73;0.57;;;12.70;99.90;;;;;;5000038;28;20062;-79
2022/07/12 00:52:40;;;;;;;0.88;0.50;;;12.70;99.90;;;;;;5005123;28;20053;-81
2022/07/12 00:55:07;;;;;;;0.90;0.20;;;12.70;99.90;;;;;;5001483;28;20045;-79
2022/07/12 00:57:34;;;;;;;1.95;1.15;;;12.70;99.90;;;;;;5019228;28;20049;-79
2022/07/12 01:00:00;;;;;;;0.68;0.20;;;12.60;99.90;;;;;;4998678;28;20045;-80
2022/07/12 01:02:26;;;;;;;0.55;0.25;;;12.60;99.90;;;;;;4999815;28;20471;-80
2022/07/12 01:04:54;;;;;;;1.08;0.20;;;12.60;99.90;;;;;;4995556;28;20056;-80
2022/07/12 01:07:20;;;;;;;1.23;0.20;;;12.50;99.90;;;;;;5003712;28;20066;-80
2022/07/12 01:09:45;;;;;;;1.02;0.10;;;12.50;99.90;;;;;;4994389;28;20099;-81
2022/07/12 01:12:12;;;;;;;0.30;0.10;;;12.70;99.90;;;;;;5012767;28;20067;-79
2022/07/12 01:14:39;;;;;;;3.50;0.20;;;12.40;99.90;;;;;;5004027;28;20043;-79
2022/07/12 01:17:06;;;;;;;0.10;0.10;;;12.30;99.90;;;;;;5022273;28;20432;-79
2022/07/12 01:19:32;;;;;;;0.40;0.30;;;12.30;99.90;;;;;;5014943;28;20563;-78
2022/07/12 01:22:01;;;;;;;0.30;0.20;;;12.30;99.90;;;;;;5020200;28;20041;-82
2022/07/12 01:24:26;;;;;;;0.95;0.30;;;12.30;99.90;;;;;;5014839;28;20049;-80
2022/07/12 01:26:53;;;;;;;2.50;0.20;;;12.30;99.90;;;;;;5003993;28;20042;-80
2022/07/12 01:29:19;;;;;;;2.65;0.20;;;12.20;99.90;;;;;;4993802;28;20045;-80
2022/07/12 01:31:45;;;;;;;2.95;0.10;;;12.20;99.90;;;;;;5001766;28;20115;-79
2022/07/12 01:34:11;;;;;;;0.10;0.10;;;12.20;99.90;;;;;;4999401;28;20137;-79
2022/07/12 01:36:38;;;;;;;1.20;0.28;;;12.20;99.90;;;;;;4984012;28;20099;-79
2022/07/12 01:39:04;;;;;;;9.52;0.55;;;12.10;99.90;;;;;;4996204;28;20120;-79
2022/07/12 01:41:32;;;;;;;3.70;0.63;;;12.20;99.90;;;;;;4998362;28;20089;-80
2022/07/12 01:43:58;;;;;;;7.72;0.70;;;12.20;99.90;;;;;;4995658;28;20045;-82
2022/07/12 01:46:24;;;;;;;1.55;0.60;;;12.50;99.90;;;;;;4986846;28;20132;-81
2022/07/12 01:48:49;;;;;;;1.15;0.70;;;12.10;99.90;;;;;;4994511;28;20052;-79
2022/07/12 01:51:15;;;;;;;6.05;0.75;;;12.10;99.90;;;;;;5001711;28;20044;-79
2022/07/12 01:53:41;;;;;;;6.03;0.65;;;12.10;99.90;;;;;;4992864;28;20053;-79
2022/07/12 01:56:06;;;;;;;26.40;1.02;;;12.10;99.90;;;;;;4999787;28;20068;-79
2022/07/12 01:58:32;;;;;;;13.50;0.80;;;12.00;99.90;;;;;;4982259;28;20132;-79
2022/07/12 02:00:58;;;;;;;3.10;0.60;;;12.00;99.90;;;;;;5011908;28;20041;-82
2022/07/12 02:03:23;;;;;;;2.45;0.40;;;12.00;99.90;;;;;;5001420;28;20400;-81
2022/07/12 02:05:49;;;;;;;1.10;0.38;;;11.90;99.90;;;;;;4992549;28;20141;-78
2022/07/12 02:08:15;;;;;;;0.70;0.70;;;11.90;99.90;;;;;;5001796;28;20128;-79
2022/07/12 02:10:42;;;;;;;1.48;0.50;;;11.90;99.90;;;;;;4994137;28;20120;-79
2022/07/12 02:13:07;;;;;;;0.38;0.30;;;11.90;99.90;;;;;;5001629;28;20041;-79
2022/07/12 02:15:33;;;;;;;0.30;0.30;;;11.90;99.90;;;;;;4984590;28;20046;-80
2022/07/12 02:17:59;;;;;;;0.85;0.40;;;11.90;99.90;;;;;;4997547;28;20179;-81
2022/07/12 02:20:24;;;;;;;4.53;0.77;;;11.80;99.90;;;;;;4996346;28;20045;-81
2022/07/12 02:22:50;;;;;;;19.50;0.80;;;11.80;99.90;;;;;;5014124;28;20132;-79
2022/07/12 02:25:16;;;;;;;19.90;0.60;;;11.70;99.90;;;;;;4998122;28;20095;-81
2022/07/12 02:27:42;;;;;;;6.22;0.30;;;11.70;99.90;;;;;;4996540;28;20160;-79
2022/07/12 02:30:09;;;;;;;5.22;0.30;;;11.70;99.90;;;;;;4997411;28;20045;-78
2022/07/12 02:32:35;;;;;;;2.55;0.30;;;11.70;99.90;;;;;;4995189;28;20769;-79
2022/07/12 02:35:00;;;;;;;2.22;0.40;;;11.70;99.90;;;;;;5003659;28;20045;-79
2022/07/12 02:37:26;;;;;;;10.48;0.50;;;11.70;99.90;;;;;;5000071;28;20038;-82
2022/07/12 02:39:51;;;;;;;4.20;0.47;;;11.70;99.90;;;;;;4990453;28;20484;-82
2022/07/12 02:42:17;;;;;;;0.30;0.20;;;11.70;99.90;;;;;;4987346;28;20037;-82
2022/07/12 02:44:43;;;;;;;6.78;0.47;;;11.70;99.90;;;;;;5014516;28;20072;-79
2022/07/12 02:47:08;;;;;;;13.95;0.60;;;11.60;99.90;;;;;;4995716;28;20046;-79
2022/07/12 02:49:34;;;;;;;7.03;0.50;;;11.60;99.90;;;;;;4997733;28;20046;-79
2022/07/12 02:52:00;;;;;;;24.00;1.10;;;11.50;99.90;;;;;;4997136;28;20038;-82
2022/07/12 02:54:25;;;;;;;10.43;0.70;;;11.50;99.90;;;;;;5013291;28;20053;-79
2022/07/12 02:56:51;;;;;;;59.47;2.78;;;11.40;99.90;;;;;;4994516;28;20084;-82
2022/07/12 02:59:17;;;;;;;3.90;0.50;;;11.40;99.90;;;;;;4994711;28;20044;-79
2022/07/12 03:01:42;;;;;;;0.70;0.50;;;11.40;99.90;;;;;;4999119;28;20037;-79
2022/07/12 03:04:08;;;;;;;0.63;0.52;;;11.40;99.90;;;;;;4999996;28;20045;-80
2022/07/12 03:06:34;;;;;;;1.77;0.50;;;11.40;99.90;;;;;;4993017;28;20160;-79
2022/07/12 03:08:59;;;;;;;2.40;1.00;;;11.60;99.90;;;;;;5000108;28;20057;-81
2022/07/12 03:11:25;;;;;;;1.67;0.40;;;11.40;99.90;;;;;;5017704;28;20072;-79
2022/07/12 03:13:50;;;;;;;0.73;0.40;;;11.50;99.90;;;;;;5014476;28;20053;-84
2022/07/12 03:16:16;;;;;;;1.15;0.40;;;11.50;99.90;;;;;;5013834;28;20038;-79
2022/07/12 03:18:43;;;;;;;0.20;0.20;;;11.50;99.90;;;;;;4994518;28;20120;-80
2022/07/12 03:21:09;;;;;;;1.60;0.20;;;11.50;99.90;;;;;;4984639;28;20053;-79
2022/07/12 03:23:34;;;;;;;1.00;0.43;;;11.50;99.90;;;;;;4980670;28;20041;-79
2022/07/12 03:26:00;;;;;;;0.20;0.10;;;11.50;99.90;;;;;;4994211;28;20068;-79
2022/07/12 03:28:26;;;;;;;1.17;0.10;;;11.50;99.90;;;;;;4994757;28;20401;-80
2022/07/12 03:30:51;;;;;;;1.55;0.10;;;11.50;99.90;;;;;;5009295;28;20382;-82
2022/07/12 03:33:17;;;;;;;2.67;0.20;;;11.40;99.90;;;;;;4997166;28;20552;-80
2022/07/12 03:35:42;;;;;;;4.60;0.13;;;11.50;99.90;;;;;;4984941;28;20710;-80
2022/07/12 03:38:08;;;;;;;1.17;0.20;;;11.50;99.90;;;;;;4999923;28;20045;-79
2022/07/12 03:40:34;;;;;;;20.55;0.52;;;11.40;99.90;;;;;;5011707;28;20042;-79
2022/07/12 03:43:00;;;;;;;22.58;1.08;;;11.40;99.90;;;;;;5012868;28;20119;-80
2022/07/12 03:45:25;;;;;;;13.88;0.93;;;11.30;99.90;;;;;;5001220;28;20124;-82
2022/07/12 03:47:51;;;;;;;14.70;0.98;;;11.40;99.90;;;;;;5020062;28;20120;-80
2022/07/12 03:50:17;;;;;;;46.88;1.10;;;11.40;99.90;;;;;;4996936;28;20045;-79
2022/07/12 03:52:43;;;;;;;27.52;1.17;;;11.50;99.90;;;;;;4994381;28;20181;-79
2022/07/12 03:55:10;;;;;;;14.10;1.10;;;11.40;99.90;;;;;;5014054;28;20068;-79
2022/07/12 03:57:37;;;;;;;2.95;0.80;;;11.50;99.90;;;;;;4995286;28;20494;-81
2022/07/12 04:00:06;;;;;;;1.60;0.80;;;11.50;99.90;;;;;;4997693;28;20037;-81
2022/07/12 04:02:31;;;;;;;8.20;1.08;;;11.70;99.90;;;;;;4995726;28;20037;-80
2022/07/12 04:04:57;;;;;;;13.68;0.60;;;11.80;99.90;;;;;;4997137;28;20049;-79
2022/07/12 04:07:23;;;;;;;19.63;0.70;;;11.80;99.90;;;;;;4995501;28;20080;-83
2022/07/12 04:09:48;;;;;;;16.85;0.60;;;11.80;99.90;;;;;;4993402;28;20086;-79
2022/07/12 04:12:14;;;;;;;8.05;0.40;;;11.80;99.90;;;;;;4992773;28;20049;-79
2022/07/12 04:14:40;;;;;;;9.02;0.60;;;11.80;99.90;;;;;;5000836;28;20050;-79
2022/07/12 04:17:06;;;;;;;16.75;1.20;;;11.90;99.90;;;;;;5018151;28;20038;-79
2022/07/12 04:19:32;;;;;;;6.88;0.82;;;12.10;99.90;;;;;;4996994;28;20056;-82
2022/07/12 04:21:59;;;;;;;7.53;1.27;;;12.20;99.90;;;;;;5018687;28;20543;-82
2022/07/12 04:24:25;;;;;;;6.30;0.82;;;12.40;99.90;;;;;;4999772;28;20794;-79
2022/07/12 04:26:51;;;;;;;15.43;0.85;;;12.70;99.90;;;;;;4999601;28;20044;-83
2022/07/12 04:29:18;;;;;;;2.00;0.80;;;13.20;99.90;;;;;;5015929;28;20593;-82
2022/07/12 04:31:43;;;;;;;8.45;0.82;;;13.70;99.90;;;;;;5006144;28;20058;-81
2022/07/12 04:34:09;;;;;;;1.70;0.60;;;14.00;99.90;;;;;;4991606;28;20731;-82
2022/07/12 04:36:35;;;;;;;1.00;0.43;;;14.10;99.90;;;;;;5001654;28;20042;-82
2022/07/12 04:39:04;;;;;;;3.63;0.70;;;14.20;99.90;;;;;;5004281;28;20113;-80
2022/07/12 04:42:18;;;;;;;;;;;;;;;;;;;;;
2022/07/12 04:44:47;;;;;;;2.80;0.60;;;14.80;99.90;;;;;;4995205;28;20047;-82
2022/07/12 04:47:13;;;;;;;1.27;0.60;;;15.40;99.90;;;;;;5015302;28;20038;-79
2022/07/12 04:49:38;;;;;;;3.13;0.60;;;16.30;99.90;;;;;;4998040;28;20072;-81
2022/07/12 04:52:04;;;;;;;0.60;0.50;;;16.90;99.90;;;;;;5002142;28;20041;-81
2022/07/12 04:54:30;;;;;;;0.50;0.32;;;18.10;99.90;;;;;;4993066;28;20045;-82
2022/07/12 04:56:55;;;;;;;0.45;0.40;;;19.10;99.90;;;;;;5004498;28;20796;-85
2022/07/12 04:59:21;;;;;;;0.60;0.40;;;20.20;99.90;;;;;;4995123;28;20033;-85
2022/07/12 05:01:48;;;;;;;1.60;0.50;;;20.20;99.90;;;;;;5014817;28;20029;-81
2022/07/12 05:04:14;;;;;;;0.43;0.40;;;20.40;99.90;;;;;;5000488;28;21899;-82
2022/07/12 05:06:39;;;;;;;3.75;0.70;;;20.50;99.90;;;;;;5003013;28;20052;-80
2022/07/12 05:09:05;;;;;;;0.85;0.50;;;20.70;99.90;;;;;;5015815;28;20025;-80
2022/07/12 05:11:32;;;;;;;0.70;0.60;;;21.20;99.90;;;;;;4994372;28;20496;-81
2022/07/12 05:13:57;;;;;;;0.98;0.70;;;22.20;99.90;;;;;;5011952;28;20049;-83
2022/07/12 05:16:23;;;;;;;1.50;0.80;;;22.10;99.90;;;;;;4990264;28;20042;-81
2022/07/12 05:18:49;;;;;;;1.10;0.77;;;21.30;99.90;;;;;;5008416;28;20848;-81
2022/07/12 05:21:14;;;;;;;2.45;0.88;;;20.90;99.90;;;;;;4993995;28;20049;-79
2022/07/12 05:23:40;;;;;;;2.28;1.00;;;20.90;99.90;;;;;;4996930;28;20056;-79
2022/07/12 05:26:05;;;;;;;1.65;0.70;;;21.40;99.90;;;;;;4997549;28;20041;-80
2022/07/12 05:28:32;;;;;;;1.13;0.70;;;22.60;99.90;;;;;;5000544;28;20060;-83
2022/07/12 05:30:57;;;;;;;2.08;1.10;;;23.80;99.90;;;;;;4996935;28;20052;-85
2022/07/12 05:33:23;;;;;;;0.93;0.77;;;25.00;99.90;;;;;;4999696;28;20120;-83
2022/07/12 05:35:48;;;;;;;3.17;0.95;;;26.20;99.90;;;;;;5007195;28;20048;-83
2022/07/12 05:38:14;;;;;;;0.80;0.80;;;27.10;99.90;;;;;;5000781;28;20458;-84
2022/07/12 05:40:39;;;;;;;2.65;0.75;;;27.20;99.90;;;;;;4999557;28;20156;-82
2022/07/12 05:43:05;;;;;;;0.95;0.90;;;26.70;99.90;;;;;;5006831;28;20041;-81
2022/07/12 05:45:31;;;;;;;1.83;0.80;;;26.30;99.90;;;;;;5004833;28;20054;-82
2022/07/12 05:47:56;;;;;;;1.15;0.77;;;25.90;99.90;;;;;;5007353;28;20049;-84
2022/07/12 05:50:22;;;;;;;0.90;0.90;;;25.50;99.90;;;;;;5007534;28;20094;-83
2022/07/12 05:55:31;;;;;;;1.60;1.23;;;25.20;99.90;;;;;;4997150;28;20140;-80
2022/07/12 05:57:57;;;;;;;1.02;0.93;;;24.60;99.90;;;;;;4993463;28;20137;-82
2022/07/12 06:00:23;;;;;;;2.97;1.23;;;23.90;99.90;;;;;;4996521;28;20049;-83
2022/07/12 06:02:48;;;;;;;1.33;1.23;;;23.40;99.90;;;;;;5012481;28;20073;-81
2022/07/12 06:05:14;;;;;;;2.42;1.40;;;23.00;99.90;;;;;;5000318;28;20513;-80
2022/07/12 06:07:39;;;;;;;3.33;1.50;;;22.40;99.90;;;;;;5021889;28;20053;-80
2022/07/12 06:10:05;;;;;;;1.40;1.30;;;22.20;99.90;;;;;;5004129;28;20046;-81
2022/07/12 06:12:31;;;;;;;2.45;2.08;;;21.90;99.90;;;;;;5005195;28;20442;-80
2022/07/12 06:14:57;;;;;;;2.40;2.20;;;21.80;99.90;;;;;;5014439;28;20046;-82
2022/07/12 06:17:23;;;;;;;1.75;1.65;;;21.50;99.90;;;;;;5000591;28;20046;-82
2022/07/12 06:19:49;;;;;;;1.48;1.38;;;21.30;99.90;;;;;;4997845;28;20050;-81
2022/07/12 06:22:15;;;;;;;1.95;1.80;;;21.20;99.90;;;;;;5009854;28;20573;-80
2022/07/12 06:24:40;;;;;;;3.72;1.95;;;21.10;99.90;;;;;;5005164;28;20053;-80
2022/07/12 06:27:06;;;;;;;2.45;1.63;;;20.80;99.90;;;;;;5010184;28;20427;-79
2022/07/12 06:29:31;;;;;;;1.90;1.80;;;20.80;99.90;;;;;;5011319;28;20056;-80
2022/07/12 06:31:57;;;;;;;2.30;1.85;;;20.70;99.90;;;;;;5016847;28;20096;-80
2022/07/12 06:34:22;;;;;;;2.00;1.88;;;20.70;99.90;;;;;;5001724;28;20045;-80
2022/07/12 06:36:48;;;;;;;1.95;1.83;;;20.70;99.90;;;;;;5007571;28;20045;-79
2022/07/12 06:39:14;;;;;;;2.20;2.00;;;20.70;99.90;;;;;;4998298;28;20132;-80
2022/07/12 06:41:39;;;;;;;2.40;2.00;;;20.60;99.90;;;;;;5000105;28;20046;-79
2022/07/12 06:44:08;;;;;;;4.05;1.88;;;20.60;99.90;;;;;;4997682;28;20132;-81
2022/07/12 06:46:33;;;;;;;3.22;1.98;;;20.70;99.90;;;;;;4991974;28;20041;-80
2022/07/12 06:48:59;;;;;;;2.58;2.38;;;20.70;99.90;;;;;;4993758;28;20069;-81
2022/07/12 06:51:24;;;;;;;2.67;2.33;;;20.80;99.90;;;;;;5017014;28;20045;-82
2022/07/12 06:53:50;;;;;;;3.20;2.08;;;20.90;99.90;;;;;;5002845;28;20049;-81
2022/07/12 06:56:16;;;;;;;5.45;1.30;;;21.00;99.90;;;;;;5000079;28;20046;-80
2022/07/12 06:58:41;;;;;;;1.48;1.38;;;21.10;99.90;;;;;;5000109;28;20059;-81
2022/07/12 07:01:07;;;;;;;1.83;1.60;;;21.20;99.90;;;;;;5018163;28;20029;-80
2022/07/12 07:03:32;;;;;;;1.75;1.38;;;21.40;99.90;;;;;;4994706;28;20102;-83
2022/07/12 07:05:58;;;;;;;2.97;2.00;;;21.50;99.90;;;;;;5005434;28;20531;-82
2022/07/12 07:08:24;;;;;;;1.90;1.77;;;21.80;99.90;;;;;;5006814;28;20086;-82
2022/07/12 07:10:49;;;;;;;1.95;1.52;;;22.10;99.90;;;;;;5002301;28;20131;-81
2022/07/12 07:13:15;;;;;;;2.08;1.77;;;22.50;99.90;;;;;;4999126;28;20054;-84
2022/07/12 07:15:40;;;;;;;2.15;2.00;;;22.80;99.90;;;;;;5018927;28;20049;-79
2022/07/12 07:18:07;;;;;;;2.30;1.77;;;23.20;99.90;;;;;;5002824;28;20041;-80
2022/07/12 07:20:33;;;;;;;2.40;2.10;;;23.60;99.90;;;;;;5005096;28;20049;-80
2022/07/12 07:22:58;;;;;;;3.55;1.70;;;23.90;99.90;;;;;;4997336;28;20500;-80
2022/07/12 07:25:24;;;;;;;1.85;1.73;;;24.30;99.90;;;;;;5022717;28;20098;-81
2022/07/12 07:27:50;;;;;;;2.35;1.58;;;24.40;99.90;;;;;;5001377;28;20124;-80
2022/07/12 07:32:59;;;;;;;5.28;2.33;;;24.80;99.90;;;;;;4997176;28;20068;-81
2022/07/12 07:35:25;;;;;;;2.47;2.28;;;24.90;99.90;;;;;;5000502;28;20665;-80
2022/07/12 07:37:51;;;;;;;4.85;2.13;;;24.70;99.90;;;;;;4998064;28;20049;-83
2022/07/12 07:40:16;;;;;;;2.42;2.33;;;24.70;99.90;;;;;;5004812;28;20045;-80
2022/07/12 07:42:42;;;;;;;2.33;1.90;;;24.60;99.90;;;;;;4998933;28;20099;-81
2022/07/12 07:45:10;;;;;;;5.15;2.10;;;24.70;99.90;;;;;;5021535;28;20076;-80
2022/07/12 07:47:47;;;;;;;1.98;1.83;;;24.80;99.90;;;;;;5019667;28;20440;-79
2022/07/12 07:50:12;;;;;;;4.50;2.20;;;24.80;99.90;;;;;;5006413;28;20057;-82
2022/07/12 07:52:38;;;;;;;1.63;1.52;;;24.70;99.90;;;;;;5029335;28;20034;-80
2022/07/12 07:55:26;;;;;;;3.97;1.98;;;24.70;99.90;;;;;;5024611;28;20128;-80
2022/07/12 07:58:05;;;;;;;;;;;;;;;;;;;;;
2022/07/12 08:00:31;;;;;;;2.05;1.50;;;24.80;99.90;;;;;;5000402;28;20049;-80
2022/07/12 08:03:17;;;;;;;5.45;2.67;;;25.10;99.90;;;;;;5003459;28;20053;-82
2022/07/12 08:08:28;;;;;;;1.92;1.83;;;25.30;99.90;;;;;;5011564;28;19999;-80
2022/07/12 08:10:55;;;;;;;1.98;1.88;;;25.40;99.90;;;;;;5019278;28;20128;-80
2022/07/12 08:13:25;;;;;;;2.45;1.42;;;25.50;99.90;;;;;;5017135;28;20077;-83
2022/07/12 08:15:51;;;;;;;2.67;2.03;;;25.70;99.90;;;;;;5001495;28;20042;-82
2022/07/12 08:18:17;;;;;;;4.53;1.20;;;26.00;99.90;;;;;;5004557;28;20095;-80
2022/07/12 08:20:46;;;;;;;1.70;1.60;;;25.80;99.90;;;;;;5005217;28;20064;-84
2022/07/12 08:23:12;;;;;;;1.70;1.60;;;25.60;99.90;;;;;;4990919;28;20199;-83
2022/07/12 08:25:37;;;;;;;1.60;1.50;;;25.50;99.90;;;;;;5020390;28;20048;-85
2022/07/12 08:28:10;;;;;;;1.67;0.93;;;25.30;99.90;;;;;;5000003;28;20419;-81
2022/07/12 08:31:04;;;;;;;1.42;0.80;;;25.30;99.90;;;;;;4998425;28;20048;-84
2022/07/12 08:33:29;;;;;;;3.00;1.02;;;25.30;99.90;;;;;;5012688;28;20056;-82
2022/07/12 08:35:55;;;;;;;3.22;1.13;;;25.30;99.90;;;;;;5006742;28;20046;-83
2022/07/12 08:38:21;;;;;;;2.25;0.80;;;25.30;99.90;;;;;;5019224;28;20065;-83
2022/07/12 08:40:47;;;;;;;2.05;1.42;;;25.30;99.90;;;;;;5001035;28;20072;-81
2022/07/12 08:43:13;;;;;;;2.35;0.77;;;25.40;99.90;;;;;;5019600;28;20584;-84
2022/07/12 08:45:40;;;;;;;1.30;1.00;;;25.40;99.90;;;;;;4996977;28;20447;-80
2022/07/12 08:48:07;;;;;;;1.60;1.27;;;25.60;99.90;;;;;;5020765;28;20531;-80
2022/07/12 08:50:33;;;;;;;6.40;1.00;;;25.70;99.90;;;;;;5002417;28;20049;-80
2022/07/12 08:52:59;;;;;;;6.43;0.90;;;25.80;99.90;;;;;;5001943;28;20124;-81
2022/07/12 08:55:28;;;;;;;1.63;0.68;;;25.90;99.90;;;;;;5001445;28;20037;-81
2022/07/12 08:57:58;;;;;;;3.65;1.25;;;26.10;99.90;;;;;;5006513;28;20176;-83
2022/07/12 09:00:25;;;;;;;1.30;0.70;;;26.30;99.90;;;;;;4995654;28;20539;-81
2022/07/12 09:03:03;;;;;;;1.00;0.80;;;26.60;99.90;;;;;;4998421;28;20404;-83
2022/07/12 09:05:30;;;;;;;1.02;0.60;;;26.80;99.90;;;;;;5003796;28;20099;-80
2022/07/12 09:08:09;;;;;;;1.15;0.75;;;27.00;99.90;;;;;;5018033;28;20029;-83
2022/07/12 09:10:51;;;;;;;2.95;1.10;;;26.80;99.90;;;;;;5015658;28;20037;-82
2022/07/12 09:13:17;;;;;;;2.45;1.38;;;26.80;99.90;;;;;;5006753;28;20561;-81
2022/07/12 09:15:43;;;;;;;3.53;1.48;;;26.80;99.90;;;;;;5018627;28;20132;-80
2022/07/12 09:18:17;;;;;;;1.63;1.05;;;26.80;99.90;;;;;;5009764;28;20468;-80
2022/07/12 09:20:51;;;;;;;4.15;0.73;;;26.90;99.90;;;;;;4994678;28;20040;-81
2022/07/12 09:23:17;;;;;;;0.88;0.77;;;26.90;99.90;;;;;;4994933;28;20053;-82
2022/07/12 09:28:21;;;;;;;2.33;0.98;;;27.00;99.90;;;;;;5112827;27;1247789;-79
2022/07/12 09:30:50;;;;;;;1.67;1.08;;;26.80;99.90;;;;;;5116200;27;20496;-78
2022/07/12 09:36:08;;;;;;;2.55;1.00;;;26.50;99.90;;;;;;5119390;28;20046;-78
2022/07/12 09:38:36;;;;;;;1.60;0.70;;;26.50;99.90;;;;;;5100710;28;20052;-81
2022/07/12 09:41:03;;;;;;;0.93;0.70;;;26.60;99.90;;;;;;5097525;28;20035;-79
2022/07/12 09:43:29;;;;;;;3.58;0.95;;;26.70;99.90;;;;;;5121128;27;20046;-79
2022/07/12 09:45:56;;;;;;;2.65;0.95;;;26.70;99.90;;;;;;5104101;28;20085;-80
2022/07/12 09:48:21;;;;;;;10.45;1.00;;;26.70;99.90;;;;;;5085789;28;20028;-79
2022/07/12 09:50:49;;;;;;;1.60;1.40;;;26.60;99.90;;;;;;5115907;27;20046;-78
2022/07/12 09:53:27;;;;;;;2.08;0.90;;;26.60;99.90;;;;;;5115472;27;20142;-80
2022/07/12 09:55:52;;;;;;;1.75;0.88;;;26.80;99.90;;;;;;5102768;28;20152;-78
2022/07/12 09:58:30;;;;;;;1.75;0.80;;;27.00;99.90;;;;;;5083981;28;20511;-79
2022/07/12 10:00:59;;;;;;;4.38;1.35;;;27.10;99.90;;;;;;5098101;28;20044;-81
2022/07/12 10:03:29;;;;;;;1.38;1.25;;;27.30;99.90;;;;;;5118590;28;20070;-79
2022/07/12 10:05:55;;;;;;;1.23;0.70;;;27.30;99.90;;;;;;5118308;28;20130;-79
2022/07/12 10:08:21;;;;;;;3.80;0.70;;;27.30;99.90;;;;;;5120730;28;20039;-80
2022/07/12 10:10:49;;;;;;;0.80;0.50;;;27.20;99.90;;;;;;5099987;28;20473;-80
2022/07/12 10:13:16;;;;;;;2.25;0.70;;;27.30;99.90;;;;;;5103564;28;20432;-79
2022/07/12 10:15:43;;;;;;;1.40;0.82;;;27.60;99.90;;;;;;5099408;28;20573;-81
2022/07/12 10:18:15;;;;;;;2.47;0.68;;;27.70;99.90;;;;;;5120368;28;20047;-80
2022/07/12 10:20:56;;;;;;;1.08;0.50;;;27.70;99.90;;;;;;5118793;28;20043;-81
2022/07/12 10:23:34;;;;;;;3.00;0.80;;;27.80;99.90;;;;;;5118318;28;20075;-80
2022/07/12 10:26:20;;;;;;;1.77;0.85;;;27.70;99.90;;;;;;5119493;27;20063;-81
2022/07/12 10:29:25;;;;;;;3.47;0.70;;;27.80;99.90;;;;;;5116079;28;20043;-81
2022/07/12 10:32:26;;;;;;;0.90;0.70;;;27.80;99.90;;;;;;5108339;28;20031;-84
2022/07/12 10:35:07;;;;;;;2.17;1.10;;;27.80;99.90;;;;;;5089124;28;20043;-85
2022/07/12 10:37:34;;;;;;;0.88;0.55;;;27.60;99.90;;;;;;5102241;28;20662;-84
2022/07/12 10:40:20;;;;;;;2.95;0.70;;;27.60;99.90;;;;;;5092952;28;20140;-85
2022/07/12 10:43:08;;;;;;;0.57;0.50;;;27.50;99.90;;;;;;5071830;28;20047;-83
2022/07/12 10:45:40;;;;;;;1.05;0.70;;;27.60;99.90;;;;;;5081171;28;20048;-83
2022/07/12 10:48:07;;;;;;;1.13;0.60;;;27.70;99.90;;;;;;5106682;28;20071;-82
2022/07/12 10:53:45;;;;;;;1.30;0.80;;;27.60;99.90;;;;;;5109768;28;20134;-83
2022/07/12 10:56:20;;;;;;;1.92;0.90;;;27.50;99.90;;;;;;5101643;28;20039;-82
2022/07/12 10:58:46;;;;;;;;;;;27.70;99.90;;;;;;5090264;28;20111;-83
2022/07/12 11:01:47;;;;;;;4.43;0.80;;;27.50;99.90;;;;;;5105366;28;20056;-84
2022/07/12 11:04:13;;;;;;;0.73;0.40;;;27.40;99.90;;;;;;5105517;28;20080;-82
2022/07/12 11:06:40;;;;;;;3.70;0.30;;;27.50;99.90;;;;;;5106684;28;20031;-82
2022/07/12 11:09:08;;;;;;;0.57;0.30;;;27.40;99.90;;;;;;5103411;28;20084;-82
2022/07/12 11:11:39;;;;;;;3.53;0.60;;;27.40;99.90;;;;;;5104245;27;20046;-81
2022/07/12 11:14:05;;;;;;;1.20;0.70;;;27.50;99.90;;;;;;5106215;28;20039;-83
2022/07/12 11:16:31;;;;;;;3.33;0.50;;;27.60;99.90;;;;;;5088850;28;20477;-82
2022/07/12 11:18:57;;;;;;;10.68;1.52;;;27.70;99.90;;;;;;5101897;28;20040;-81
2022/07/12 11:21:24;;;;;;;3.50;0.60;;;27.80;99.90;;;;;;5084959;28;20050;-84
2022/07/12 11:23:50;;;;;;;1.02;0.45;;;27.70;99.90;;;;;;5087691;28;20119;-82
2022/07/12 11:26:16;;;;;;;1.88;0.45;;;27.70;99.90;;;;;;5088636;28;20067;-82
2022/07/12 11:28:44;;;;;;;8.93;0.70;;;27.70;99.90;;;;;;5089771;28;20044;-83
2022/07/12 11:31:12;;;;;;;1.58;0.40;;;27.70;99.90;;;;;;5088018;28;20048;-83
2022/07/12 11:33:46;;;;;;;0.82;0.50;;;27.60;99.90;;;;;;5092618;28;20044;-83
2022/07/12 11:36:13;;;;;;;2.17;0.35;;;27.60;99.90;;;;;;5103391;28;20048;-83
2022/07/12 11:38:41;;;;;;;1.38;0.30;;;27.50;99.90;;;;;;5085272;28;20032;-81
2022/07/12 11:41:07;;;;;;;4.07;0.40;;;27.50;99.90;;;;;;5107108;28;20097;-82
2022/07/12 11:43:37;;;;;;;1.05;0.38;;;27.50;99.90;;;;;;5073326;28;20044;-82
2022/07/12 11:46:04;;;;;;;0.60;0.30;;;27.60;99.90;;;;;;5101901;28;20043;-83
2022/07/12 11:48:33;;;;;;;5.63;0.35;;;27.60;99.90;;;;;;5101453;28;20070;-80
2022/07/12 11:51:07;;;;;;;2.35;0.47;;;27.80;99.90;;;;;;5082544;28;20042;-83
2022/07/12 11:53:35;;;;;;;3.10;1.13;;;27.90;99.90;;;;;;5098007;28;20059;-83
2022/07/12 11:56:05;;;;;;;1.40;0.40;;;28.10;99.90;;;;;;5099433;28;20117;-82
2022/07/12 11:58:37;;;;;;;2.47;0.93;;;28.20;99.90;;;;;;5086493;28;20035;-83
2022/07/12 12:01:04;;;;;;;0.80;0.55;;;28.30;99.90;;;;;;5103248;28;20394;-83
2022/07/12 12:03:32;;;;;;;9.82;0.95;;;28.40;99.90;;;;;;5100764;28;20047;-80
2022/07/12 12:05:58;;;;;;;1.92;0.65;;;28.40;99.90;;;;;;5100410;28;20136;-80
2022/07/12 12:08:24;;;;;;;1.48;0.50;;;28.40;99.90;;;;;;5068020;28;20039;-80
2022/07/12 12:10:58;;;;;;;2.15;0.65;;;28.40;99.90;;;;;;5066054;28;20039;-83
2022/07/12 12:13:25;;;;;;;0.88;0.45;;;28.70;99.90;;;;;;5103640;28;20517;-83
2022/07/12 12:16:04;;;;;;;2.45;0.57;;;28.50;99.90;;;;;;5097755;28;20084;-80
2022/07/12 12:18:38;;;;;;;2.00;0.50;;;28.60;99.90;;;;;;5101202;28;20032;-82
2022/07/12 12:21:12;;;;;;;7.22;0.90;;;28.90;99.90;;;;;;5088621;27;20050;-82
2022/07/12 12:23:41;;;;;;;1.10;0.98;;;28.50;99.90;;;;;;5080071;27;20043;-80
2022/07/12 12:26:23;;;;;;;0.95;0.75;;;28.70;99.90;;;;;;5074393;27;20067;-82
2022/07/12 12:28:53;;;;;;;0.70;0.50;;;28.60;99.90;;;;;;5067257;28;20523;-82
2022/07/12 12:31:20;;;;;;;8.02;0.80;;;28.60;99.90;;;;;;5067922;28;20125;-80
2022/07/12 12:33:56;;;;;;;1.55;0.75;;;28.80;99.90;;;;;;5067392;28;20077;-83
2022/07/12 12:36:23;;;;;;;3.70;0.40;;;28.80;99.90;;;;;;5063362;28;20130;-82
2022/07/12 12:38:50;;;;;;;1.50;0.30;;;28.90;99.90;;;;;;5071003;28;20039;-83
2022/07/12 12:41:17;;;;;;;3.35;0.60;;;28.90;99.90;;;;;;5065939;28;20047;-80
2022/07/12 12:43:43;;;;;;;2.75;0.45;;;28.90;99.90;;;;;;5084759;28;20192;-81
2022/07/12 12:46:09;;;;;;;5.43;0.35;;;28.90;99.90;;;;;;5080935;28;20174;-81
2022/07/12 12:48:35;;;;;;;2.03;0.55;;;28.90;99.90;;;;;;5084963;28;21262;-80
2022/07/12 12:51:11;;;;;;;3.42;0.30;;;29.00;99.90;;;;;;5084838;28;21347;-81
2022/07/12 12:53:39;;;;;;;3.28;0.40;;;28.90;99.90;;;;;;5081490;28;20043;-82
2022/07/12 12:56:13;;;;;;;0.95;0.30;;;29.00;98.80;;;;;;5076049;28;20620;-83
2022/07/12 12:58:39;;;;;;;2.85;0.60;;;29.10;99.30;;;;;;5095853;27;20494;-82
2022/07/12 13:01:06;;;;;;;3.22;0.60;;;29.10;99.20;;;;;;5082248;28;20058;-83
2022/07/12 13:03:32;;;;;;;4.20;0.40;;;29.00;98.90;;;;;;5083244;28;20074;-82
2022/07/12 13:05:58;;;;;;;2.38;0.50;;;29.00;99.70;;;;;;5100342;28;20036;-82
2022/07/12 13:08:25;;;;;;;0.45;0.40;;;29.10;99.90;;;;;;5100161;28;20048;-82